Time;durP1;ratioP1;P1;durP2;ratioP2;P2;SDS_P1;SDS_P2;PMS_P1;PMS_P2;Temp;Humidity;BMP_temperature;BMP_pressure;BME280_temperature;BME280_humidity;BME280_pressure;Samples;Min_cycle;Max_cycle;Signal;HPM_P1;HPM_P2
2023/05/17 00:02:10;;;;;;;4.10;1.20;;;;;;;;;;5081066;28;20244;-66
2023/05/17 00:04:37;;;;;;;1.47;1.37;;;;;;;;;;5081314;28;20209;-67
2023/05/17 00:07:05;;;;;;;2.70;1.20;;;;;;;;;;5081592;28;20229;-66
2023/05/17 00:09:33;;;;;;;2.13;0.90;;;;;;;;;;5080948;28;20217;-67
2023/05/17 00:12:02;;;;;;;5.60;1.20;;;;;;;;;;5080847;28;20569;-65
2023/05/17 00:14:30;;;;;;;4.23;1.20;;;;;;;;;;5081015;28;20320;-65
2023/05/17 00:16:57;;;;;;;1.83;1.13;;;;;;;;;;5080769;28;20239;-65
2023/05/17 00:19:25;;;;;;;2.97;1.00;;;;;;;;;;5080788;28;20208;-64
2023/05/17 00:21:53;;;;;;;1.27;1.03;;;;;;;;;;5073128;28;20199;-65
2023/05/17 00:24:21;;;;;;;4.07;1.30;;;;;;;;;;5080696;28;20223;-65
2023/05/17 00:26:48;;;;;;;3.03;1.30;;;;;;;;;;5073741;28;20720;-66
2023/05/17 00:29:17;;;;;;;5.10;1.70;;;;;;;;;;5073520;28;20314;-66
2023/05/17 00:31:45;;;;;;;2.97;1.30;;;;;;;;;;5080852;28;20213;-66
2023/05/17 00:34:13;;;;;;;2.67;1.40;;;;;;;;;;5080477;28;20226;-66
2023/05/17 00:36:40;;;;;;;1.90;0.97;;;;;;;;;;5080754;28;20712;-66
2023/05/17 00:39:08;;;;;;;1.70;0.93;;;;;;;;;;5080371;28;20208;-66
2023/05/17 00:41:36;;;;;;;4.37;1.33;;;;;;;;;;5080593;28;20210;-66
2023/05/17 00:44:04;;;;;;;1.87;1.27;;;;;;;;;;5080654;28;20213;-66
2023/05/17 00:46:33;;;;;;;5.43;1.17;;;;;;;;;;5080546;28;20290;-67
2023/05/17 00:49:01;;;;;;;2.67;1.17;;;;;;;;;;5080554;28;20206;-66
2023/05/17 00:51:30;;;;;;;3.57;1.37;;;;;;;;;;5080485;28;20206;-66
2023/05/17 00:53:58;;;;;;;3.30;1.13;;;;;;;;;;5079875;28;20335;-66
2023/05/17 00:56:25;;;;;;;1.27;0.90;;;;;;;;;;5080000;28;20233;-66
2023/05/17 00:58:53;;;;;;;1.70;1.10;;;;;;;;;;5080326;28;20218;-66
2023/05/17 01:01:21;;;;;;;2.30;1.10;;;;;;;;;;5080155;28;20244;-66
2023/05/17 01:03:50;;;;;;;1.87;1.30;;;;;;;;;;5079066;28;20213;-67
2023/05/17 01:06:18;;;;;;;3.93;1.27;;;;;;;;;;5080294;28;20226;-66
2023/05/17 01:08:46;;;;;;;2.73;1.50;;;;;;;;;;5079991;28;20206;-66
2023/05/17 01:11:18;;;;;;;2.90;1.07;;;;;;;;;;5079964;28;20243;-66
2023/05/17 01:13:52;;;;;;;2.67;1.20;;;;;;;;;;5079703;28;20564;-66
2023/05/17 01:16:25;;;;;;;4.93;1.40;;;;;;;;;;5080061;28;20226;-65
2023/05/17 01:18:57;;;;;;;2.33;1.23;;;;;;;;;;5079791;28;20315;-65
2023/05/17 01:21:31;;;;;;;2.17;1.20;;;;;;;;;;5079721;28;20206;-65
2023/05/17 01:24:02;;;;;;;4.23;1.00;;;;;;;;;;5079788;28;20213;-65
2023/05/17 01:26:36;;;;;;;2.73;1.37;;;;;;;;;;5079380;28;20222;-65
2023/05/17 01:29:04;;;;;;;4.10;1.50;;;;;;;;;;5079820;28;20204;-65
2023/05/17 01:31:32;;;;;;;4.27;1.53;;;;;;;;;;5079770;28;20217;-65
2023/05/17 01:34:00;;;;;;;3.50;1.10;;;;;;;;;;5079436;28;20222;-65
2023/05/17 01:36:28;;;;;;;1.17;1.07;;;;;;;;;;5079696;28;20577;-65
2023/05/17 01:38:56;;;;;;;4.97;1.43;;;;;;;;;;5079341;28;20209;-65
2023/05/17 01:41:26;;;;;;;1.73;1.30;;;;;;;;;;5079734;28;20206;-65
2023/05/17 01:44:00;;;;;;;0.97;0.90;;;;;;;;;;5079653;28;20297;-65
2023/05/17 01:46:31;;;;;;;1.83;1.10;;;;;;;;;;5079143;28;20261;-65
2023/05/17 01:49:05;;;;;;;2.87;1.40;;;;;;;;;;5079144;28;20225;-65
2023/05/17 01:51:33;;;;;;;2.77;1.30;;;;;;;;;;5079187;28;20675;-65
2023/05/17 01:54:02;;;;;;;3.37;1.10;;;;;;;;;;5079017;28;20205;-66
2023/05/17 01:56:33;;;;;;;2.13;1.23;;;;;;;;;;5079258;28;20229;-65
2023/05/17 01:59:06;;;;;;;3.07;1.30;;;;;;;;;;5079235;28;20234;-65
2023/05/17 02:01:34;;;;;;;3.83;1.37;;;;;;;;;;5078856;28;20238;-65
2023/05/17 02:04:02;;;;;;;2.77;1.27;;;;;;;;;;5079086;28;20265;-65
2023/05/17 02:06:30;;;;;;;4.23;1.40;;;;;;;;;;5078998;28;20281;-66
2023/05/17 02:09:01;;;;;;;1.70;1.10;;;;;;;;;;5078824;28;20213;-65
2023/05/17 02:11:29;;;;;;;1.93;0.90;;;;;;;;;;5078848;28;20292;-65
2023/05/17 02:13:57;;;;;;;1.63;1.10;;;;;;;;;;5078783;28;20233;-66
2023/05/17 02:16:26;;;;;;;1.27;1.00;;;;;;;;;;5078510;28;20268;-66
2023/05/17 02:18:54;;;;;;;2.40;1.40;;;;;;;;;;5078843;28;20202;-66
2023/05/17 02:21:22;;;;;;;2.20;0.90;;;;;;;;;;5078719;28;20293;-66
2023/05/17 02:23:50;;;;;;;2.43;1.17;;;;;;;;;;5078196;28;20293;-66
2023/05/17 02:26:18;;;;;;;6.13;1.23;;;;;;;;;;5077906;28;20222;-66
2023/05/17 02:28:45;;;;;;;2.77;1.20;;;;;;;;;;5075736;28;20202;-66
2023/05/17 02:31:13;;;;;;;1.93;1.40;;;;;;;;;;5078374;28;20289;-66
2023/05/17 02:33:42;;;;;;;1.33;1.23;;;;;;;;;;5078125;28;20198;-66
2023/05/17 02:36:10;;;;;;;5.07;1.20;;;;;;;;;;5077756;28;20572;-66
2023/05/17 02:38:38;;;;;;;3.00;1.10;;;;;;;;;;5077655;28;20210;-66
2023/05/17 02:41:06;;;;;;;3.03;1.10;;;;;;;;;;5077456;28;20198;-65
2023/05/17 02:43:33;;;;;;;1.43;0.87;;;;;;;;;;5076764;28;20609;-65
2023/05/17 02:46:01;;;;;;;3.30;1.30;;;;;;;;;;5077024;28;20218;-65
2023/05/17 02:48:29;;;;;;;6.27;1.30;;;;;;;;;;5077810;28;20650;-65
2023/05/17 02:50:58;;;;;;;3.10;1.30;;;;;;;;;;5077603;28;20657;-65
2023/05/17 02:53:26;;;;;;;1.67;1.10;;;;;;;;;;5077529;28;20629;-65
2023/05/17 02:55:56;;;;;;;3.50;1.37;;;;;;;;;;5075041;28;20222;-65
2023/05/17 02:58:24;;;;;;;3.90;2.03;;;;;;;;;;5076981;28;20206;-65
2023/05/17 03:00:53;;;;;;;3.03;1.20;;;;;;;;;;5074143;28;20723;-65
2023/05/17 03:03:22;;;;;;;1.27;1.03;;;;;;;;;;5077052;28;20206;-65
2023/05/17 03:05:51;;;;;;;2.63;1.40;;;;;;;;;;5076572;28;20297;-65
2023/05/17 03:08:20;;;;;;;4.33;1.37;;;;;;;;;;5076332;28;20216;-65
2023/05/17 03:10:48;;;;;;;4.40;1.00;;;;;;;;;;5077154;28;20569;-65
2023/05/17 03:13:15;;;;;;;2.30;1.20;;;;;;;;;;5077973;28;20212;-65
2023/05/17 03:15:43;;;;;;;3.00;1.27;;;;;;;;;;5078121;28;20313;-65
2023/05/17 03:18:11;;;;;;;3.80;1.53;;;;;;;;;;5077946;28;20198;-64
2023/05/17 03:20:39;;;;;;;4.50;1.40;;;;;;;;;;5077576;28;20711;-65
2023/05/17 03:23:06;;;;;;;2.97;1.27;;;;;;;;;;5077664;28;20206;-65
2023/05/17 03:25:35;;;;;;;2.63;0.97;;;;;;;;;;5077597;28;20229;-64
2023/05/17 03:28:03;;;;;;;2.40;1.40;;;;;;;;;;5077734;28;20198;-64
2023/05/17 03:30:31;;;;;;;2.87;1.40;;;;;;;;;;5077443;28;20210;-65
2023/05/17 03:32:59;;;;;;;1.80;1.30;;;;;;;;;;5077409;28;20202;-64
2023/05/17 03:35:27;;;;;;;6.63;1.57;;;;;;;;;;5077432;28;20276;-64
2023/05/17 03:37:55;;;;;;;4.30;1.30;;;;;;;;;;5077557;28;20229;-64
2023/05/17 03:40:23;;;;;;;2.93;1.17;;;;;;;;;;5077319;28;20212;-65
2023/05/17 03:42:53;;;;;;;2.47;1.23;;;;;;;;;;5077380;28;20851;-65
2023/05/17 03:45:20;;;;;;;3.50;1.17;;;;;;;;;;5077476;28;20313;-64
2023/05/17 03:47:48;;;;;;;3.63;1.10;;;;;;;;;;5077796;28;20206;-64
2023/05/17 03:50:16;;;;;;;3.23;1.33;;;;;;;;;;5077678;28;20211;-64
2023/05/17 03:52:45;;;;;;;5.60;1.10;;;;;;;;;;5077667;28;20230;-64
2023/05/17 03:55:12;;;;;;;3.30;1.70;;;;;;;;;;5077129;28;20263;-67
2023/05/17 03:57:40;;;;;;;1.90;1.60;;;;;;;;;;5077264;28;20629;-65
2023/05/17 04:00:11;;;;;;;3.13;1.37;;;;;;;;;;5077033;28;20210;-65
2023/05/17 04:02:38;;;;;;;2.57;1.13;;;;;;;;;;5077598;28;20217;-65
2023/05/17 04:05:06;;;;;;;2.40;1.30;;;;;;;;;;5077183;28;20226;-65
2023/05/17 04:07:34;;;;;;;2.53;1.17;;;;;;;;;;5077518;28;20237;-65
2023/05/17 04:10:02;;;;;;;2.57;1.10;;;;;;;;;;5077308;28;20206;-64
2023/05/17 04:12:30;;;;;;;3.90;1.47;;;;;;;;;;5077322;28;20202;-65
2023/05/17 04:14:58;;;;;;;2.73;1.27;;;;;;;;;;5077332;28;20206;-65
2023/05/17 04:17:27;;;;;;;3.17;1.23;;;;;;;;;;5077165;28;20222;-65
2023/05/17 04:19:55;;;;;;;4.37;1.37;;;;;;;;;;5077291;28;20202;-65
2023/05/17 04:22:23;;;;;;;1.33;0.83;;;;;;;;;;5077159;28;20214;-64
2023/05/17 04:24:50;;;;;;;2.20;1.70;;;;;;;;;;5077059;28;20654;-64
2023/05/17 04:27:18;;;;;;;1.20;0.90;;;;;;;;;;5077065;28;20195;-64
2023/05/17 04:29:46;;;;;;;2.57;1.43;;;;;;;;;;5059885;28;20198;-62
2023/05/17 04:32:13;;;;;;;1.83;1.73;;;;;;;;;;5074495;28;20206;-64
2023/05/17 04:34:43;;;;;;;4.53;1.57;;;;;;;;;;5077277;28;20206;-65
2023/05/17 04:37:10;;;;;;;6.20;1.40;;;;;;;;;;5077108;28;20238;-65
2023/05/17 04:39:38;;;;;;;2.00;1.40;;;;;;;;;;5076009;28;20202;-65
2023/05/17 04:42:06;;;;;;;2.90;1.30;;;;;;;;;;5080332;28;20229;-65
2023/05/17 04:44:34;;;;;;;2.10;1.50;;;;;;;;;;5080429;28;20277;-65
2023/05/17 04:47:02;;;;;;;2.47;1.40;;;;;;;;;;5080065;28;20796;-65
2023/05/17 04:49:30;;;;;;;2.03;1.60;;;;;;;;;;5080102;28;20203;-65
2023/05/17 04:51:59;;;;;;;3.67;1.70;;;;;;;;;;5080054;28;20206;-64
2023/05/17 04:54:27;;;;;;;2.70;1.70;;;;;;;;;;5079898;28;20216;-65
2023/05/17 04:56:55;;;;;;;2.30;1.20;;;;;;;;;;5079880;28;20713;-65
2023/05/17 04:59:23;;;;;;;3.13;1.47;;;;;;;;;;5074783;28;20214;-65
2023/05/17 05:01:50;;;;;;;7.27;1.80;;;;;;;;;;5079906;28;20689;-65
2023/05/17 05:04:18;;;;;;;6.67;1.60;;;;;;;;;;5079761;28;20569;-64
2023/05/17 05:06:46;;;;;;;5.20;1.40;;;;;;;;;;5079563;28;20272;-64
2023/05/17 05:09:15;;;;;;;5.23;1.90;;;;;;;;;;5076793;28;20206;-64
2023/05/17 05:11:43;;;;;;;4.30;1.50;;;;;;;;;;5068554;28;20569;-64
2023/05/17 05:14:11;;;;;;;2.93;1.53;;;;;;;;;;5071715;28;20685;-64
2023/05/17 05:16:38;;;;;;;5.27;1.57;;;;;;;;;;5076717;28;20218;-63
2023/05/17 05:19:07;;;;;;;2.43;1.43;;;;;;;;;;5079951;28;20202;-65
2023/05/17 05:21:36;;;;;;;2.93;1.80;;;;;;;;;;5078934;28;20202;-65
2023/05/17 05:24:04;;;;;;;2.87;1.50;;;;;;;;;;5065358;28;20222;-65
2023/05/17 05:26:33;;;;;;;3.80;1.97;;;;;;;;;;5078487;28;20222;-65
2023/05/17 05:29:00;;;;;;;3.83;1.60;;;;;;;;;;5079423;28;20733;-65
2023/05/17 05:31:29;;;;;;;6.57;1.80;;;;;;;;;;5079821;28;20210;-65
2023/05/17 05:33:56;;;;;;;4.43;1.57;;;;;;;;;;5079363;28;20587;-65
2023/05/17 05:36:24;;;;;;;1.87;1.50;;;;;;;;;;5079521;28;20240;-65
2023/05/17 05:38:53;;;;;;;4.83;1.70;;;;;;;;;;5079340;28;20297;-62
2023/05/17 05:41:21;;;;;;;3.40;1.60;;;;;;;;;;5079903;28;20289;-62
2023/05/17 05:43:50;;;;;;;1.50;1.40;;;;;;;;;;5079739;28;20202;-62
2023/05/17 05:46:18;;;;;;;3.17;1.73;;;;;;;;;;5079374;28;20248;-62
2023/05/17 05:48:45;;;;;;;3.10;1.73;;;;;;;;;;5078646;28;20649;-62
2023/05/17 05:51:13;;;;;;;1.43;1.33;;;;;;;;;;5079449;28;20673;-62
2023/05/17 05:53:41;;;;;;;1.87;1.33;;;;;;;;;;5079023;28;20206;-63
2023/05/17 05:56:09;;;;;;;5.27;2.37;;;;;;;;;;5079105;28;20276;-62
2023/05/17 05:58:37;;;;;;;2.20;1.60;;;;;;;;;;5078731;28;20670;-62
2023/05/17 06:01:07;;;;;;;4.13;1.57;;;;;;;;;;5079004;28;20238;-62
2023/05/17 06:03:34;;;;;;;5.43;2.13;;;;;;;;;;5078796;28;20244;-62
2023/05/17 06:06:02;;;;;;;4.47;2.20;;;;;;;;;;5078793;28;20230;-62
2023/05/17 06:08:30;;;;;;;6.33;1.90;;;;;;;;;;5078809;28;20206;-62
2023/05/17 06:11:00;;;;;;;3.13;1.57;;;;;;;;;;5078785;28;20212;-62
2023/05/17 06:13:28;;;;;;;2.97;1.70;;;;;;;;;;5078780;28;20210;-62
2023/05/17 06:15:56;;;;;;;4.37;1.80;;;;;;;;;;5078868;28;20225;-63
2023/05/17 06:18:25;;;;;;;1.93;1.60;;;;;;;;;;5078733;28;20279;-62
2023/05/17 06:20:54;;;;;;;2.60;1.63;;;;;;;;;;5078820;28;20245;-62
2023/05/17 06:23:22;;;;;;;1.07;1.00;;;;;;;;;;5078482;28;20256;-62
2023/05/17 06:25:51;;;;;;;5.30;1.90;;;;;;;;;;5074454;28;20697;-62
2023/05/17 06:28:19;;;;;;;1.87;1.50;;;;;;;;;;5077224;28;20204;-63
2023/05/17 06:30:46;;;;;;;3.73;2.10;;;;;;;;;;5074657;28;20284;-62
2023/05/17 06:33:14;;;;;;;3.27;1.70;;;;;;;;;;5076967;28;20217;-63
2023/05/17 06:35:44;;;;;;;5.93;1.90;;;;;;;;;;5077149;28;20234;-62
2023/05/17 06:38:23;;;;;;;3.97;1.53;;;;;;;;;;5076040;28;20248;-62
2023/05/17 06:40:51;;;;;;;2.80;1.60;;;;;;;;;;5074760;28;20630;-62
2023/05/17 06:43:19;;;;;;;6.00;1.60;;;;;;;;;;5077467;28;20201;-62
2023/05/17 06:45:47;;;;;;;2.17;1.33;;;;;;;;;;5077835;28;20218;-62
2023/05/17 06:48:15;;;;;;;3.83;1.67;;;;;;;;;;5077644;28;20206;-62
2023/05/17 06:50:44;;;;;;;3.13;1.50;;;;;;;;;;5077729;28;20205;-62
2023/05/17 06:53:12;;;;;;;4.63;1.60;;;;;;;;;;5077460;28;20203;-62
2023/05/17 06:55:41;;;;;;;4.37;1.60;;;;;;;;;;5077550;28;20308;-62
2023/05/17 06:58:09;;;;;;;6.07;1.90;;;;;;;;;;5077401;28;20226;-62
2023/05/17 07:00:37;;;;;;;1.80;1.70;;;;;;;;;;5076603;28;20713;-62
2023/05/17 07:03:05;;;;;;;2.90;1.60;;;;;;;;;;5077993;28;20288;-62
2023/05/17 07:05:34;;;;;;;5.97;1.80;;;;;;;;;;5077722;28;20632;-62
2023/05/17 07:08:04;;;;;;;3.67;1.77;;;;;;;;;;5077744;28;20248;-62
2023/05/17 07:10:32;;;;;;;4.47;1.60;;;;;;;;;;5077867;28;20206;-62
2023/05/17 07:13:00;;;;;;;4.50;1.70;;;;;;;;;;5077697;28;20547;-63
2023/05/17 07:15:27;;;;;;;3.30;2.27;;;;;;;;;;5077053;28;20697;-63
2023/05/17 07:17:56;;;;;;;5.00;2.00;;;;;;;;;;5073677;28;20261;-63
2023/05/17 07:20:23;;;;;;;2.97;1.70;;;;;;;;;;5077180;28;20273;-63
2023/05/17 07:22:51;;;;;;;2.00;1.57;;;;;;;;;;5074544;28;20204;-63
2023/05/17 07:25:20;;;;;;;6.67;1.50;;;;;;;;;;5076812;28;20221;-63
2023/05/17 07:27:48;;;;;;;3.93;1.80;;;;;;;;;;5077455;28;20194;-62
2023/05/17 07:30:16;;;;;;;4.10;1.63;;;;;;;;;;5077158;28;20198;-62
2023/05/17 07:32:44;;;;;;;3.23;1.60;;;;;;;;;;5076923;28;20213;-63
2023/05/17 07:35:12;;;;;;;3.37;2.00;;;;;;;;;;5074413;28;20228;-65
2023/05/17 07:37:40;;;;;;;2.23;1.43;;;;;;;;;;5077221;28;20219;-65
2023/05/17 07:40:08;;;;;;;4.00;1.50;;;;;;;;;;5077096;28;20206;-64
2023/05/17 07:42:37;;;;;;;8.00;2.13;;;;;;;;;;5077333;28;20214;-68
2023/05/17 07:45:06;;;;;;;4.40;1.87;;;;;;;;;;5077549;28;20212;-67
2023/05/17 07:47:34;;;;;;;2.13;1.40;;;;;;;;;;5074167;28;20221;-66
2023/05/17 07:50:03;;;;;;;2.23;1.20;;;;;;;;;;5078692;28;20202;-68
2023/05/17 07:52:31;;;;;;;3.00;1.30;;;;;;;;;;5077525;28;20292;-68
2023/05/17 07:54:59;;;;;;;5.53;1.30;;;;;;;;;;5077101;28;20677;-67
2023/05/17 07:57:27;;;;;;;8.13;1.40;;;;;;;;;;5076926;28;20225;-69
2023/05/17 07:59:56;;;;;;;2.70;2.13;;;;;;;;;;5077197;28;20215;-68
2023/05/17 08:02:24;;;;;;;3.20;1.20;;;;;;;;;;5077515;28;20210;-69
2023/05/17 08:04:51;;;;;;;3.27;1.50;;;;;;;;;;5076775;28;20607;-68
2023/05/17 08:07:19;;;;;;;4.30;1.30;;;;;;;;;;5077408;28;20206;-68
2023/05/17 08:09:47;;;;;;;5.83;1.77;;;;;;;;;;5077023;28;20289;-68
2023/05/17 08:12:15;;;;;;;4.60;1.67;;;;;;;;;;5066677;28;20202;-68
2023/05/17 08:14:43;;;;;;;2.70;1.73;;;;;;;;;;5080436;28;20670;-67
2023/05/17 08:17:13;;;;;;;5.03;1.77;;;;;;;;;;5080296;28;20248;-66
2023/05/17 08:19:40;;;;;;;5.23;1.60;;;;;;;;;;5082669;28;20684;-66
2023/05/17 08:22:09;;;;;;;1.93;1.80;;;;;;;;;;5080588;28;20220;-68
2023/05/17 08:24:37;;;;;;;4.33;1.30;;;;;;;;;;5080655;28;20206;-65
2023/05/17 08:27:05;;;;;;;4.30;1.60;;;;;;;;;;5080495;28;20252;-65
2023/05/17 08:29:32;;;;;;;3.67;1.63;;;;;;;;;;5080797;28;20310;-65
2023/05/17 08:32:00;;;;;;;2.43;1.40;;;;;;;;;;5080623;28;20210;-65
2023/05/17 08:34:30;;;;;;;3.50;1.53;;;;;;;;;;5080807;28;20212;-66
2023/05/17 08:37:00;;;;;;;7.93;1.43;;;;;;;;;;5080283;28;20639;-65
2023/05/17 08:39:28;;;;;;;6.53;1.93;;;;;;;;;;5080109;28;20226;-65
2023/05/17 08:41:58;;;;;;;3.67;2.00;;;;;;;;;;5072673;28;20202;-65
2023/05/17 08:44:27;;;;;;;1.67;1.47;;;;;;;;;;5065691;28;20198;-65
2023/05/17 08:50:18;;;;;;;2.77;1.30;;;;;;;;;;5079112;28;20281;-66
2023/05/17 08:52:46;;;;;;;5.83;1.53;;;;;;;;;;5080011;28;20206;-67
2023/05/17 08:55:15;;;;;;;3.87;1.17;;;;;;;;;;5077495;28;20226;-67
2023/05/17 08:57:43;;;;;;;9.87;1.40;;;;;;;;;;5079728;28;20210;-66
2023/05/17 09:00:13;;;;;;;2.93;1.30;;;;;;;;;;5079746;28;20206;-68
2023/05/17 09:02:42;;;;;;;5.57;1.60;;;;;;;;;;5080411;28;20206;-68
2023/05/17 09:05:12;;;;;;;2.60;1.13;;;;;;;;;;5079484;28;20252;-66
2023/05/17 09:07:42;;;;;;;3.10;1.60;;;;;;;;;;5079514;28;20225;-68
2023/05/17 09:10:10;;;;;;;6.40;1.07;;;;;;;;;;5076620;28;20288;-67
2023/05/17 09:12:38;;;;;;;6.63;2.30;;;;;;;;;;5078827;28;20198;-68
2023/05/17 09:15:16;;;;;;;4.00;1.57;;;;;;;;;;5085457;28;20230;-68
2023/05/17 09:17:50;;;;;;;4.87;1.53;;;;;;;;;;5079957;28;20202;-67
2023/05/17 09:20:22;;;;;;;1.90;1.20;;;;;;;;;;5079723;28;20212;-67
2023/05/17 09:22:52;;;;;;;2.87;1.60;;;;;;;;;;5079266;28;20630;-67
2023/05/17 09:25:20;;;;;;;5.73;1.30;;;;;;;;;;5075992;28;20313;-67
2023/05/17 09:31:12;;;;;;;2.27;1.30;;;;;;;;;;5081124;28;20197;-67
2023/05/17 09:33:43;;;;;;;3.47;1.37;;;;;;;;;;5080081;28;20665;-66
2023/05/17 09:36:16;;;;;;;4.10;2.23;;;;;;;;;;5079166;28;20229;-67
2023/05/17 09:38:51;;;;;;;3.20;1.40;;;;;;;;;;5078665;28;20213;-66
2023/05/17 09:41:20;;;;;;;4.00;1.60;;;;;;;;;;5078877;28;20205;-68
2023/05/17 09:43:49;;;;;;;3.50;1.40;;;;;;;;;;5076445;28;20194;-64
2023/05/17 09:46:17;;;;;;;3.57;1.50;;;;;;;;;;5075722;28;20272;-64
2023/05/17 09:48:45;;;;;;;2.60;1.50;;;;;;;;;;5078605;28;20304;-64
2023/05/17 09:54:40;;;;;;;3.63;1.40;;;;;;;;;;5084474;28;20201;-63
2023/05/17 09:57:09;;;;;;;2.57;1.47;;;;;;;;;;5078919;28;20236;-65
2023/05/17 09:59:37;;;;;;;3.47;1.50;;;;;;;;;;5071304;28;20602;-64
2023/05/17 10:02:06;;;;;;;3.57;1.27;;;;;;;;;;5078858;28;20269;-65
2023/05/17 10:04:36;;;;;;;3.30;1.80;;;;;;;;;;5079043;28;20206;-65
2023/05/17 10:07:04;;;;;;;4.77;1.50;;;;;;;;;;5078792;28;20234;-65
2023/05/17 10:09:35;;;;;;;6.33;1.63;;;;;;;;;;5078494;28;20572;-65
2023/05/17 10:12:06;;;;;;;3.90;1.50;;;;;;;;;;5078661;28;20206;-65
2023/05/17 10:14:35;;;;;;;1.90;1.40;;;;;;;;;;5078469;28;20271;-66
2023/05/17 10:17:04;;;;;;;4.20;1.40;;;;;;;;;;5078748;28;20233;-64
2023/05/17 10:19:32;;;;;;;2.80;1.30;;;;;;;;;;5073627;28;20222;-66
2023/05/17 10:22:01;;;;;;;4.83;1.13;;;;;;;;;;5078758;28;20248;-65
2023/05/17 10:24:50;;;;;;;4.53;1.20;;;;;;;;;;5078415;28;20241;-66
2023/05/17 10:27:20;;;;;;;3.60;1.60;;;;;;;;;;5078880;28;20206;-65
2023/05/17 10:29:48;;;;;;;4.67;1.30;;;;;;;;;;5066924;28;20548;-64
2023/05/17 10:32:21;;;;;;;4.73;1.67;;;;;;;;;;5079170;28;20704;-64
2023/05/17 10:34:51;;;;;;;7.40;1.67;;;;;;;;;;5079189;28;20588;-66
2023/05/17 10:37:37;;;;;;;5.50;1.27;;;;;;;;;;5078229;28;20289;-65
2023/05/17 10:40:06;;;;;;;3.40;1.20;;;;;;;;;;5078234;28;20223;-65
2023/05/17 10:42:35;;;;;;;5.33;1.67;;;;;;;;;;5067228;28;20264;-65
2023/05/17 10:45:06;;;;;;;2.23;1.47;;;;;;;;;;5078145;28;20206;-65
2023/05/17 10:47:34;;;;;;;3.83;1.40;;;;;;;;;;5078369;28;20210;-65
2023/05/17 10:50:02;;;;;;;3.13;1.27;;;;;;;;;;5077891;28;20206;-65
2023/05/17 10:52:30;;;;;;;4.33;1.50;;;;;;;;;;5077892;28;20557;-66
2023/05/17 10:55:01;;;;;;;3.40;1.43;;;;;;;;;;5077547;28;20279;-64
2023/05/17 10:57:33;;;;;;;1.73;1.30;;;;;;;;;;5077708;28;20661;-66
2023/05/17 11:00:21;;;;;;;3.90;1.40;;;;;;;;;;5077157;28;20242;-66
2023/05/17 11:02:49;;;;;;;4.60;1.13;;;;;;;;;;5077746;28;20677;-66
2023/05/17 11:05:24;;;;;;;2.50;1.27;;;;;;;;;;5077800;28;20268;-65
2023/05/17 11:08:11;;;;;;;3.07;1.40;;;;;;;;;;5077364;28;20216;-64
2023/05/17 11:10:39;;;;;;;3.20;1.60;;;;;;;;;;5077845;28;20255;-65
2023/05/17 11:13:21;;;;;;;8.50;1.13;;;;;;;;;;5077788;28;20260;-65
2023/05/17 11:16:04;;;;;;;6.53;1.13;;;;;;;;;;5077347;28;20226;-65
2023/05/17 11:18:51;;;;;;;2.93;1.40;;;;;;;;;;5077515;28;20210;-65
2023/05/17 11:21:20;;;;;;;3.13;1.10;;;;;;;;;;5077749;28;20198;-66
2023/05/17 11:23:48;;;;;;;4.97;1.30;;;;;;;;;;5077251;28;20214;-66
2023/05/17 11:26:17;;;;;;;7.47;1.87;;;;;;;;;;5077586;28;20218;-65
2023/05/17 11:28:45;;;;;;;3.47;1.00;;;;;;;;;;5077523;28;20202;-65
2023/05/17 11:31:15;;;;;;;4.23;1.00;;;;;;;;;;5077321;28;20684;-65
2023/05/17 11:33:43;;;;;;;2.07;1.00;;;;;;;;;;5077746;28;20237;-66
2023/05/17 11:36:15;;;;;;;2.53;0.90;;;;;;;;;;5077378;28;20253;-66
2023/05/17 11:38:43;;;;;;;4.20;1.37;;;;;;;;;;5077360;28;20275;-66
2023/05/17 11:41:17;;;;;;;3.83;1.10;;;;;;;;;;5077603;28;20237;-65
2023/05/17 11:43:48;;;;;;;3.30;1.10;;;;;;;;;;5076440;28;20891;-65
2023/05/17 11:46:21;;;;;;;3.87;1.30;;;;;;;;;;5068773;28;20252;-65
2023/05/17 11:48:50;;;;;;;5.50;1.40;;;;;;;;;;5080906;28;20209;-65
2023/05/17 11:51:19;;;;;;;1.60;0.97;;;;;;;;;;5081692;28;20205;-66
2023/05/17 11:53:54;;;;;;;3.27;1.53;;;;;;;;;;5081062;28;20237;-65
2023/05/17 11:59:58;;;;;;;2.07;1.03;;;;;;;;;;5086345;28;20233;-66
2023/05/17 12:02:29;;;;;;;3.07;1.40;;;;;;;;;;5081392;28;20239;-66
2023/05/17 12:04:58;;;;;;;2.30;1.07;;;;;;;;;;5077942;28;20281;-65
2023/05/17 12:07:26;;;;;;;6.43;1.23;;;;;;;;;;5080206;28;20234;-66
2023/05/17 12:09:54;;;;;;;3.20;1.37;;;;;;;;;;5080778;28;20229;-65
2023/05/17 12:12:22;;;;;;;2.80;1.40;;;;;;;;;;5081215;28;20213;-66
2023/05/17 12:14:50;;;;;;;3.10;1.00;;;;;;;;;;5081024;28;20206;-64
2023/05/17 12:17:22;;;;;;;1.43;1.00;;;;;;;;;;5080906;28;20210;-65
2023/05/17 12:19:55;;;;;;;3.63;1.30;;;;;;;;;;5081060;28;20233;-65
2023/05/17 12:22:23;;;;;;;3.93;1.30;;;;;;;;;;5081028;28;20206;-65
2023/05/17 12:24:51;;;;;;;4.73;1.57;;;;;;;;;;5080576;28;20205;-66
2023/05/17 12:27:25;;;;;;;3.80;1.17;;;;;;;;;;5080633;28;20617;-66
2023/05/17 12:29:53;;;;;;;3.87;1.20;;;;;;;;;;5070885;28;20251;-66
2023/05/17 12:32:21;;;;;;;1.43;0.90;;;;;;;;;;5080789;28;20206;-66
2023/05/17 12:34:49;;;;;;;3.20;1.27;;;;;;;;;;5080562;28;20289;-66
2023/05/17 12:37:19;;;;;;;3.37;1.00;;;;;;;;;;5080669;28;20210;-66
2023/05/17 12:39:47;;;;;;;5.90;1.07;;;;;;;;;;5080086;28;20213;-66
2023/05/17 12:42:15;;;;;;;2.27;1.30;;;;;;;;;;5080167;28;20704;-66
2023/05/17 12:44:43;;;;;;;3.57;1.30;;;;;;;;;;5067129;28;20346;-66
2023/05/17 12:47:11;;;;;;;3.13;1.40;;;;;;;;;;5080301;28;20210;-66
2023/05/17 12:49:39;;;;;;;3.80;1.07;;;;;;;;;;5076336;28;20225;-66
2023/05/17 12:52:08;;;;;;;5.07;1.00;;;;;;;;;;5075003;28;20270;-66
2023/05/17 12:54:39;;;;;;;1.70;0.90;;;;;;;;;;5080025;28;20681;-66
2023/05/17 12:57:10;;;;;;;1.97;1.30;;;;;;;;;;5080118;28;20230;-65
2023/05/17 12:59:46;;;;;;;3.57;1.23;;;;;;;;;;5078791;28;20210;-65
2023/05/17 13:02:15;;;;;;;5.87;1.80;;;;;;;;;;5079886;28;20230;-65
2023/05/17 13:04:43;;;;;;;3.50;1.13;;;;;;;;;;5080372;28;20206;-66
2023/05/17 13:07:11;;;;;;;4.50;1.70;;;;;;;;;;5079898;28;20673;-65
2023/05/17 13:09:47;;;;;;;6.27;0.93;;;;;;;;;;5079655;28;20259;-65
2023/05/17 13:12:19;;;;;;;2.73;1.10;;;;;;;;;;5079943;28;20206;-64
2023/05/17 13:14:47;;;;;;;3.87;1.30;;;;;;;;;;5079561;28;20217;-66
2023/05/17 13:17:17;;;;;;;4.23;1.23;;;;;;;;;;5080220;28;20207;-64
2023/05/17 13:19:45;;;;;;;5.87;1.33;;;;;;;;;;5079697;28;20229;-64
2023/05/17 13:22:14;;;;;;;6.87;1.50;;;;;;;;;;5080064;28;20242;-66
2023/05/17 13:24:42;;;;;;;1.40;1.23;;;;;;;;;;5079427;28;20206;-65
2023/05/17 13:27:12;;;;;;;4.13;1.30;;;;;;;;;;5079803;28;20218;-65
2023/05/17 13:29:41;;;;;;;5.37;1.27;;;;;;;;;;5079676;28;20203;-65
2023/05/17 13:32:10;;;;;;;3.77;1.20;;;;;;;;;;5079591;28;20209;-65
2023/05/17 13:34:38;;;;;;;6.60;1.30;;;;;;;;;;5079101;28;20210;-66
2023/05/17 13:37:06;;;;;;;3.43;1.07;;;;;;;;;;5078941;28;20700;-64
2023/05/17 13:39:39;;;;;;;4.67;1.23;;;;;;;;;;5078902;28;20743;-65
2023/05/17 13:42:07;;;;;;;2.50;1.40;;;;;;;;;;5078018;28;20257;-64
2023/05/17 13:44:37;;;;;;;3.60;1.50;;;;;;;;;;5079186;28;20213;-66
2023/05/17 13:47:05;;;;;;;2.37;1.10;;;;;;;;;;5078729;28;20233;-65
2023/05/17 13:49:33;;;;;;;2.87;1.10;;;;;;;;;;5078638;28;20210;-65
2023/05/17 13:52:02;;;;;;;2.57;1.40;;;;;;;;;;5079091;28;20202;-65
2023/05/17 13:54:30;;;;;;;3.80;1.27;;;;;;;;;;5078841;28;20202;-64
2023/05/17 13:56:58;;;;;;;2.83;1.43;;;;;;;;;;5079087;28;20230;-66
2023/05/17 13:59:26;;;;;;;2.87;1.20;;;;;;;;;;5078887;28;20232;-66
2023/05/17 14:01:56;;;;;;;2.57;1.37;;;;;;;;;;5078706;28;20337;-65
2023/05/17 14:04:25;;;;;;;2.73;1.57;;;;;;;;;;5079001;28;20206;-65
2023/05/17 14:06:52;;;;;;;2.40;1.30;;;;;;;;;;5078845;28;20276;-65
2023/05/17 14:09:22;;;;;;;4.10;1.60;;;;;;;;;;5078777;28;20289;-65
2023/05/17 14:11:50;;;;;;;2.37;1.30;;;;;;;;;;5078320;28;20202;-65
2023/05/17 14:14:18;;;;;;;2.37;1.60;;;;;;;;;;5073753;28;20206;-66
2023/05/17 14:16:46;;;;;;;3.37;1.63;;;;;;;;;;5078655;28;20226;-65
2023/05/17 14:19:18;;;;;;;2.67;1.70;;;;;;;;;;5078857;28;20210;-66
2023/05/17 14:21:46;;;;;;;2.90;1.70;;;;;;;;;;5078673;28;20241;-66
2023/05/17 14:24:14;;;;;;;1.70;1.47;;;;;;;;;;5078188;28;20665;-66
2023/05/17 14:26:43;;;;;;;4.63;1.60;;;;;;;;;;5078666;28;20309;-66
2023/05/17 14:29:45;;;;;;;3.33;1.60;;;;;;;;;;5078566;28;20224;-66
2023/05/17 14:32:13;;;;;;;4.97;1.70;;;;;;;;;;5078281;28;20206;-66
2023/05/17 14:34:42;;;;;;;2.23;1.47;;;;;;;;;;5078391;28;20206;-66
2023/05/17 14:37:10;;;;;;;3.67;1.40;;;;;;;;;;5078404;28;20226;-65
2023/05/17 14:39:38;;;;;;;2.57;1.60;;;;;;;;;;5078098;28;20202;-64
2023/05/17 14:42:06;;;;;;;2.83;1.83;;;;;;;;;;5077923;28;20712;-65
2023/05/17 14:44:37;;;;;;;2.30;1.67;;;;;;;;;;5068803;28;20203;-65
2023/05/17 14:47:07;;;;;;;2.63;1.63;;;;;;;;;;5076900;28;20566;-64
2023/05/17 14:49:35;;;;;;;5.20;2.20;;;;;;;;;;5078237;28;20209;-65
2023/05/17 14:52:04;;;;;;;1.67;1.47;;;;;;;;;;5078190;28;20206;-65
2023/05/17 14:54:34;;;;;;;1.73;1.63;;;;;;;;;;5077752;28;20654;-65
2023/05/17 14:57:02;;;;;;;3.33;1.73;;;;;;;;;;5077967;28;20713;-65
2023/05/17 14:59:30;;;;;;;2.30;1.73;;;;;;;;;;5077701;28;20260;-65
2023/05/17 15:01:59;;;;;;;2.73;1.40;;;;;;;;;;5077727;28;20242;-66
2023/05/17 15:04:27;;;;;;;3.40;2.00;;;;;;;;;;5078082;28;20240;-65
2023/05/17 15:06:55;;;;;;;3.33;1.63;;;;;;;;;;5077827;28;20230;-65
2023/05/17 15:09:24;;;;;;;3.40;1.80;;;;;;;;;;5077374;28;20610;-66